createdAt,value
2023-02-23T00:01:28.721Z,29.23
2023-02-23T00:03:58.967Z,29.85
2023-02-23T00:06:30.153Z,28.20
2023-02-23T00:09:01.253Z,30.98
2023-02-23T00:11:29.787Z,30.25
2023-02-23T00:13:57.841Z,29.40
2023-02-23T00:16:27.335Z,30.02
2023-02-23T00:19:00.393Z,28.60
2023-02-23T00:21:30.600Z,30.80
2023-02-23T00:24:00.663Z,30.10
2023-02-23T00:26:31.708Z,30.48
2023-02-23T00:29:00.739Z,30.83
2023-02-23T00:31:30.890Z,31.27
2023-02-23T00:34:01.544Z,30.13
2023-02-23T00:36:33.342Z,30.60
2023-02-23T00:39:07.227Z,29.55
2023-02-23T00:41:35.242Z,30.42
2023-02-23T00:44:03.275Z,31.25
2023-02-23T00:46:32.784Z,30.38
2023-02-23T00:49:01.277Z,30.77
2023-02-23T00:51:31.053Z,30.35
2023-02-23T00:54:01.399Z,29.63
2023-02-23T00:56:29.807Z,29.98
2023-02-23T00:58:58.520Z,30.45
2023-02-23T01:01:27.809Z,30.77
2023-02-23T01:03:57.562Z,31.58
2023-02-23T01:06:25.987Z,30.95
2023-02-23T01:08:56.712Z,32.35
2023-02-23T01:11:28.038Z,30.80
2023-02-23T01:13:57.636Z,31.67
2023-02-23T01:16:28.660Z,31.77
2023-02-23T01:19:00.536Z,35.00
2023-02-23T01:21:30.708Z,34.08
2023-02-23T01:23:59.699Z,35.95
2023-02-23T01:26:30.294Z,35.88
2023-02-23T01:29:00.673Z,34.90
2023-02-23T01:31:30.732Z,36.70
2023-02-23T01:34:03.404Z,35.90
2023-02-23T01:36:35.676Z,34.67
2023-02-23T01:39:07.654Z,34.78
2023-02-23T01:41:37.153Z,35.00
2023-02-23T01:44:07.287Z,35.15
2023-02-23T01:46:39.135Z,35.00
2023-02-23T01:49:11.159Z,34.95
2023-02-23T01:51:43.296Z,34.28
2023-02-23T01:54:16.397Z,34.20
2023-02-23T01:56:49.302Z,34.50
2023-02-23T01:59:18.968Z,36.35
2023-02-23T02:01:48.233Z,35.05
2023-02-23T02:04:19.989Z,33.63
2023-02-23T02:06:53.560Z,33.72
2023-02-23T02:09:25.753Z,35.35
2023-02-23T02:11:55.123Z,34.63
2023-02-23T02:14:28.466Z,36.08
2023-02-23T02:17:17.926Z,34.20
2023-02-23T02:20:30.812Z,36.70
2023-02-23T02:23:41.948Z,35.33
2023-02-23T02:26:20.959Z,36.47
2023-02-23T02:29:12.016Z,35.97
2023-02-23T02:32:13.820Z,35.38
2023-02-23T02:35:19.077Z,36.15
2023-02-23T02:38:01.697Z,34.70
2023-02-23T02:40:37.787Z,37.13
2023-02-23T02:43:11.625Z,34.28
2023-02-23T02:45:50.759Z,35.97
2023-02-23T02:48:31.091Z,34.15
2023-02-23T02:51:09.722Z,34.65
2023-02-23T02:53:46.617Z,33.92
2023-02-23T02:56:19.906Z,32.33
2023-02-23T02:58:50.249Z,34.95
2023-02-23T03:01:37.309Z,33.80
2023-02-23T03:04:39.409Z,33.80
2023-02-23T03:07:33.013Z,34.58
2023-02-23T03:10:26.949Z,34.33
2023-02-23T03:13:19.977Z,33.45
2023-02-23T03:16:15.939Z,33.67
2023-02-23T03:19:13.804Z,34.60
2023-02-23T03:22:07.608Z,33.28
2023-02-23T03:24:59.767Z,32.10
2023-02-23T03:28:00.471Z,33.03
2023-02-23T03:30:50.948Z,34.92
2023-02-23T03:33:43.720Z,33.97
2023-02-23T03:36:35.482Z,33.55
2023-02-23T03:39:29.994Z,34.17
2023-02-23T03:42:17.365Z,34.67
2023-02-23T03:45:07.382Z,36.53
2023-02-23T03:47:57.112Z,37.53
2023-02-23T03:50:49.321Z,37.90
2023-02-23T03:53:40.009Z,39.80
2023-02-23T03:56:28.167Z,40.25
2023-02-23T03:59:18.011Z,41.10
2023-02-23T04:02:07.118Z,38.92
2023-02-23T04:04:53.932Z,39.33
2023-02-23T04:07:39.659Z,40.88
2023-02-23T04:10:27.503Z,38.20
2023-02-23T04:13:15.809Z,39.33
2023-02-23T04:15:49.087Z,38.88
2023-02-23T04:18:22.870Z,38.63
2023-02-23T04:20:51.018Z,37.40
2023-02-23T04:23:19.568Z,38.90
2023-02-23T04:25:47.841Z,37.28
2023-02-23T04:28:17.087Z,37.60
2023-02-23T04:30:45.648Z,38.03
2023-02-23T04:33:13.720Z,36.42
2023-02-23T04:35:43.422Z,36.17
2023-02-23T04:38:11.483Z,37.80
2023-02-23T04:40:39.518Z,36.28
2023-02-23T04:43:07.566Z,36.85
2023-02-23T04:45:35.595Z,37.13
2023-02-23T04:48:03.658Z,37.60
2023-02-23T04:50:32.674Z,38.95
2023-02-23T04:53:02.326Z,38.28
2023-02-23T04:55:30.603Z,38.17
2023-02-23T04:58:00.347Z,37.20
2023-02-23T05:00:29.478Z,35.90
2023-02-23T05:02:57.785Z,37.80
2023-02-23T05:05:25.942Z,38.05
2023-02-23T05:07:55.148Z,38.10
2023-02-23T05:10:25.178Z,38.40
2023-02-23T05:12:53.232Z,37.88
2023-02-23T05:15:21.279Z,38.00
2023-02-23T05:17:49.349Z,37.85
2023-02-23T05:20:17.443Z,37.55
2023-02-23T05:22:45.530Z,37.80
2023-02-23T05:25:13.609Z,37.10
2023-02-23T05:27:43.002Z,39.35
2023-02-23T05:30:12.266Z,37.30
2023-02-23T05:32:40.312Z,37.83
2023-02-23T05:35:09.041Z,37.50
2023-02-23T05:37:37.219Z,38.00
2023-02-23T05:40:06.160Z,37.53
2023-02-23T05:42:34.211Z,37.97
2023-02-23T05:45:04.954Z,38.15
2023-02-23T05:47:35.519Z,37.47
2023-02-23T05:50:03.556Z,36.30
2023-02-23T05:52:31.600Z,37.13
2023-02-23T05:54:59.762Z,36.45
2023-02-23T05:57:28.618Z,37.45
2023-02-23T05:59:56.756Z,38.33
2023-02-23T06:02:26.422Z,40.65
2023-02-23T06:04:55.896Z,38.72
2023-02-23T06:07:23.992Z,39.08
2023-02-23T06:09:52.021Z,39.38
2023-02-23T06:12:20.063Z,39.40
2023-02-23T06:14:48.086Z,38.65
2023-02-23T06:17:16.133Z,39.55
2023-02-23T06:19:45.672Z,40.25
2023-02-23T06:22:13.674Z,39.53
2023-02-23T06:24:41.679Z,39.00
2023-02-23T06:27:09.726Z,38.55
2023-02-23T06:29:38.802Z,39.45
2023-02-23T06:32:07.454Z,38.50
2023-02-23T06:34:35.656Z,36.80
2023-02-23T06:37:08.903Z,37.70
2023-02-23T06:39:37.272Z,36.90
2023-02-23T06:42:05.336Z,36.53
2023-02-23T06:44:35.417Z,36.17
2023-02-23T06:47:05.762Z,36.95
2023-02-23T06:49:34.128Z,35.90
2023-02-23T06:52:02.146Z,36.28
2023-02-23T06:54:31.592Z,37.00
2023-02-23T06:56:59.664Z,36.15
2023-02-23T06:59:27.691Z,37.22
2023-02-23T07:01:55.820Z,35.80
2023-02-23T07:04:24.111Z,38.40
2023-02-23T07:06:52.177Z,36.10
2023-02-23T07:09:20.201Z,35.85
2023-02-23T07:11:49.620Z,38.08
2023-02-23T07:14:26.082Z,38.15
2023-02-23T07:16:55.179Z,38.20
2023-02-23T07:19:23.416Z,36.50
2023-02-23T07:21:51.536Z,37.83
2023-02-23T07:24:19.553Z,36.65
2023-02-23T07:26:49.514Z,36.65
2023-02-23T07:29:17.827Z,35.65
2023-02-23T07:31:45.997Z,36.17
2023-02-23T07:34:14.276Z,35.85
2023-02-23T07:36:42.374Z,35.10
2023-02-23T07:39:10.488Z,34.15
2023-02-23T07:41:38.725Z,33.92
2023-02-23T07:44:17.777Z,35.58
2023-02-23T07:46:46.481Z,36.15
2023-02-23T07:49:15.016Z,34.22
2023-02-23T07:51:43.099Z,33.80
2023-02-23T07:54:11.141Z,34.35
2023-02-23T07:56:39.228Z,34.40
2023-02-23T07:59:07.321Z,33.35
2023-02-23T08:01:37.061Z,34.33
2023-02-23T08:04:05.627Z,33.47
2023-02-23T08:06:33.720Z,34.42
2023-02-23T08:09:02.143Z,34.25
2023-02-23T08:11:30.164Z,33.55
2023-02-23T08:14:00.203Z,33.80
2023-02-23T08:16:28.768Z,35.13
2023-02-23T08:18:59.588Z,32.55
2023-02-23T08:21:29.293Z,34.10
2023-02-23T08:23:57.577Z,32.63
2023-02-23T08:26:25.757Z,32.63
2023-02-23T08:28:54.335Z,32.28
2023-02-23T08:31:23.922Z,30.50
2023-02-23T08:33:52.924Z,32.42
2023-02-23T08:36:22.687Z,30.63
2023-02-23T08:38:51.116Z,31.73
2023-02-23T08:41:19.720Z,29.83
2023-02-23T08:43:48.850Z,30.42
2023-02-23T08:46:18.836Z,30.30
2023-02-23T08:48:47.387Z,29.25
2023-02-23T08:51:17.027Z,29.25
2023-02-23T08:53:46.612Z,30.17
2023-02-23T08:56:15.370Z,30.13
2023-02-23T08:58:44.590Z,29.02
2023-02-23T09:01:19.118Z,28.55
2023-02-23T09:03:47.427Z,28.88
2023-02-23T09:06:17.339Z,28.55
2023-02-23T09:08:47.096Z,28.38
2023-02-23T09:11:15.226Z,30.10
2023-02-23T09:13:43.317Z,29.02
2023-02-23T09:16:11.527Z,29.65
2023-02-23T09:18:40.129Z,28.70
2023-02-23T09:21:10.796Z,28.25
2023-02-23T09:23:39.034Z,27.63
2023-02-23T09:26:09.825Z,27.42
2023-02-23T09:28:40.721Z,26.67
2023-02-23T09:31:10.193Z,26.25
2023-02-23T09:33:38.492Z,26.02
2023-02-23T09:36:07.739Z,27.98
2023-02-23T09:38:35.872Z,27.05
2023-02-23T09:41:03.985Z,28.58
2023-02-23T09:43:38.910Z,28.50
2023-02-23T09:46:16.278Z,30.05
2023-02-23T09:48:44.381Z,29.52
2023-02-23T09:51:19.185Z,28.63
2023-02-23T09:53:52.132Z,29.38
2023-02-23T09:56:26.303Z,29.08
2023-02-23T09:58:55.886Z,29.00
2023-02-23T10:01:56.161Z,27.92
2023-02-23T10:04:28.840Z,28.40
2023-02-23T10:07:03.009Z,27.70
2023-02-23T10:09:45.370Z,29.38
2023-02-23T10:12:22.452Z,29.50
2023-02-23T10:15:04.051Z,29.48
2023-02-23T10:17:40.376Z,28.45
2023-02-23T10:20:19.766Z,29.08
2023-02-23T10:22:50.087Z,28.85
2023-02-23T10:25:24.046Z,29.48
2023-02-23T10:27:53.367Z,28.23
2023-02-23T10:30:25.320Z,29.80
2023-02-23T10:33:00.596Z,29.38
2023-02-23T10:35:31.051Z,29.05
2023-02-23T10:38:01.334Z,29.50
2023-02-23T10:40:33.053Z,29.45
2023-02-23T10:43:02.536Z,29.67
2023-02-23T10:45:37.189Z,29.90
2023-02-23T10:48:08.771Z,30.38
2023-02-23T10:50:39.589Z,29.35
2023-02-23T10:53:17.169Z,29.52
2023-02-23T10:55:46.802Z,29.58
2023-02-23T10:58:20.408Z,29.23
2023-02-23T11:00:55.665Z,27.52
2023-02-23T11:03:29.436Z,26.80
2023-02-23T11:05:57.667Z,23.77
2023-02-23T11:08:32.481Z,24.45
2023-02-23T11:11:07.440Z,23.63
2023-02-23T11:13:41.660Z,21.92
2023-02-23T11:16:13.949Z,20.67
2023-02-23T11:18:43.726Z,21.00
2023-02-23T11:21:22.479Z,20.58
2023-02-23T11:23:52.669Z,20.50
2023-02-23T11:26:30.495Z,20.17
2023-02-23T11:29:01.148Z,19.77
2023-02-23T11:31:36.187Z,20.63
2023-02-23T11:34:06.336Z,20.58
2023-02-23T11:36:36.453Z,19.80
2023-02-23T11:39:15.883Z,20.38
2023-02-23T11:41:44.043Z,19.38
2023-02-23T11:44:21.587Z,18.77
2023-02-23T11:46:52.250Z,19.52
2023-02-23T11:49:24.769Z,19.05
2023-02-23T11:51:54.465Z,18.95
2023-02-23T11:54:27.114Z,19.85
2023-02-23T11:56:58.019Z,19.92
2023-02-23T11:59:31.139Z,19.70
2023-02-23T12:02:07.816Z,20.85
2023-02-23T12:04:38.225Z,20.23
2023-02-23T12:07:41.740Z,20.65
2023-02-23T12:10:20.156Z,19.95
2023-02-23T12:13:05.011Z,20.80
2023-02-23T12:15:43.297Z,20.83
2023-02-23T12:18:23.166Z,21.48
2023-02-23T12:20:55.011Z,22.38
2023-02-23T12:23:28.074Z,21.80
2023-02-23T12:25:59.711Z,22.42
2023-02-23T12:28:34.995Z,21.40
2023-02-23T12:31:08.001Z,19.95
2023-02-23T12:33:40.841Z,21.80
2023-02-23T12:36:19.638Z,19.52
2023-02-23T12:38:52.942Z,20.92
2023-02-23T12:41:27.472Z,19.35
2023-02-23T12:44:00.451Z,20.73
2023-02-23T12:46:31.521Z,19.90
2023-02-23T12:49:07.870Z,20.27
2023-02-23T12:51:40.015Z,19.85
2023-02-23T12:54:11.743Z,21.48
2023-02-23T12:56:50.697Z,19.02
2023-02-23T12:59:33.048Z,18.52
2023-02-23T13:02:04.182Z,16.05
2023-02-23T13:05:06.172Z,17.75
2023-02-23T13:07:44.827Z,18.20
2023-02-23T13:10:24.236Z,16.98
2023-02-23T13:13:03.634Z,17.13
2023-02-23T13:15:46.567Z,17.58
2023-02-23T13:18:21.944Z,18.92
2023-02-23T13:20:55.985Z,18.52
2023-02-23T13:23:32.859Z,17.33
2023-02-23T13:26:13.009Z,18.73
2023-02-23T13:28:50.373Z,19.70
2023-02-23T13:31:25.218Z,18.85
2023-02-23T13:33:55.561Z,20.05
2023-02-23T13:36:27.269Z,19.50
2023-02-23T13:39:23.455Z,20.02
2023-02-23T13:42:01.937Z,20.77
2023-02-23T13:44:36.160Z,22.60
2023-02-23T13:47:15.284Z,22.60
2023-02-23T13:49:51.179Z,23.95
2023-02-23T13:52:32.185Z,20.98
2023-02-23T13:55:03.966Z,20.77
2023-02-23T13:57:32.951Z,20.20
2023-02-23T14:00:01.881Z,17.35
2023-02-23T14:02:37.444Z,11.13
2023-02-23T14:05:16.693Z,5.65
2023-02-23T14:07:52.306Z,4.90
2023-02-23T14:10:23.889Z,5.03
2023-02-23T14:13:08.750Z,5.68
2023-02-23T14:15:48.278Z,7.03
2023-02-23T14:18:32.167Z,7.05
2023-02-23T14:21:07.623Z,7.40
2023-02-23T14:23:52.387Z,7.18
2023-02-23T14:26:40.144Z,8.13
2023-02-23T14:29:21.705Z,7.28
2023-02-23T14:32:03.541Z,7.68
2023-02-23T14:34:50.394Z,6.93
2023-02-23T14:37:25.291Z,6.72
2023-02-23T14:39:57.115Z,5.63
2023-02-23T14:42:27.832Z,6.47
2023-02-23T14:44:57.344Z,6.30
2023-02-23T14:47:27.879Z,6.65
2023-02-23T14:49:59.210Z,6.13
2023-02-23T14:52:29.510Z,6.28
2023-02-23T14:55:17.115Z,6.72
2023-02-23T14:57:45.596Z,6.70
2023-02-23T15:00:23.022Z,5.97
2023-02-23T15:02:56.779Z,6.88
2023-02-23T15:05:27.021Z,5.75
2023-02-23T15:07:58.672Z,5.47
2023-02-23T15:10:33.122Z,6.18
2023-02-23T15:13:02.360Z,6.50
2023-02-23T15:15:30.970Z,6.38
2023-02-23T15:18:03.020Z,5.43
2023-02-23T15:23:04.461Z,5.20
2023-02-23T15:25:38.864Z,5.75
2023-02-23T15:28:22.373Z,5.40
2023-02-23T15:30:51.778Z,6.22
2023-02-23T15:33:23.675Z,5.60
2023-02-23T15:35:56.142Z,6.40
2023-02-23T15:38:42.850Z,5.97
2023-02-23T15:41:19.676Z,4.93
2023-02-23T15:43:48.006Z,6.65
2023-02-23T15:46:24.326Z,5.68
2023-02-23T15:48:54.696Z,5.70
2023-02-23T15:51:32.787Z,5.22
2023-02-23T15:54:02.180Z,4.90
2023-02-23T15:56:31.899Z,4.60
2023-02-23T15:59:04.643Z,4.82
2023-02-23T16:01:33.501Z,4.28
2023-02-23T16:04:04.131Z,4.80
2023-02-23T16:06:35.558Z,4.28
2023-02-23T16:09:19.938Z,4.35
2023-02-23T16:11:52.740Z,4.07
2023-02-23T16:14:22.203Z,4.75
2023-02-23T16:17:08.424Z,3.83
2023-02-23T16:19:41.582Z,4.75
2023-02-23T16:22:21.336Z,3.70
2023-02-23T16:24:58.786Z,3.92
2023-02-23T16:27:30.496Z,4.07
2023-02-23T16:30:01.470Z,3.05
2023-02-23T16:32:38.512Z,4.05
2023-02-23T16:35:16.350Z,3.58
2023-02-23T16:37:56.769Z,4.03
2023-02-23T16:40:25.739Z,3.55
2023-02-23T16:42:59.078Z,3.35
2023-02-23T16:45:29.532Z,3.28
2023-02-23T16:48:02.199Z,3.70
2023-02-23T16:50:30.918Z,3.25
2023-02-23T16:52:58.961Z,3.78
2023-02-23T16:55:28.776Z,3.03
2023-02-23T16:58:00.972Z,2.90
2023-02-23T17:00:30.776Z,3.13
2023-02-23T17:03:00.656Z,3.50
2023-02-23T17:05:30.568Z,3.20
2023-02-23T17:07:59.228Z,3.40
2023-02-23T17:10:29.614Z,3.45
2023-02-23T17:13:02.512Z,3.22
2023-02-23T17:15:32.775Z,3.65
2023-02-23T17:18:00.851Z,3.50
2023-02-23T17:20:29.872Z,2.90
2023-02-23T17:23:00.126Z,3.17
2023-02-23T17:25:30.322Z,3.60
2023-02-23T17:28:00.948Z,3.50
2023-02-23T17:30:30.588Z,3.38
2023-02-23T17:33:00.381Z,2.85
2023-02-23T17:35:33.601Z,3.60
2023-02-23T17:38:02.231Z,3.83
2023-02-23T17:40:31.286Z,3.15
2023-02-23T17:43:02.016Z,3.15
2023-02-23T17:45:30.584Z,3.78
2023-02-23T17:47:59.494Z,3.33
2023-02-23T17:50:28.108Z,2.83
2023-02-23T17:52:56.496Z,2.95
2023-02-23T17:55:25.761Z,3.33
2023-02-23T17:57:54.012Z,2.83
2023-02-23T18:00:25.087Z,3.25
2023-02-23T18:02:53.310Z,3.28
2023-02-23T18:05:21.869Z,2.90
2023-02-23T18:07:50.015Z,3.33
2023-02-23T18:10:18.526Z,3.10
2023-02-23T18:12:46.678Z,2.80
2023-02-23T18:15:14.744Z,3.38
2023-02-23T18:17:44.371Z,3.05
2023-02-23T18:20:15.317Z,2.92
2023-02-23T18:22:43.670Z,3.50
2023-02-23T18:25:21.502Z,3.13
2023-02-23T18:27:53.960Z,2.70
2023-02-23T18:30:23.442Z,3.45
2023-02-23T18:32:56.192Z,2.65
2023-02-23T18:35:24.404Z,2.80
2023-02-23T18:37:52.758Z,3.40
2023-02-23T18:40:23.934Z,3.00
2023-02-23T18:42:52.204Z,3.05
2023-02-23T18:45:20.336Z,2.80
2023-02-23T18:47:48.774Z,2.80
2023-02-23T18:50:19.692Z,2.65
2023-02-23T18:52:51.534Z,2.65
2023-02-23T18:55:22.087Z,2.95
2023-02-23T18:57:50.990Z,3.03
2023-02-23T19:00:20.059Z,3.22
2023-02-23T19:02:48.775Z,3.25
2023-02-23T19:05:20.725Z,3.08
2023-02-23T19:07:51.226Z,3.03
2023-02-23T19:10:19.470Z,3.10
2023-02-23T19:12:47.668Z,2.83
2023-02-23T19:15:16.545Z,2.77
2023-02-23T19:17:46.395Z,3.10
2023-02-23T19:20:15.525Z,2.95
2023-02-23T19:22:43.799Z,3.13
2023-02-23T19:25:14.562Z,2.60
2023-02-23T19:27:44.526Z,2.57
2023-02-23T19:30:14.624Z,2.83
2023-02-23T19:32:44.081Z,2.75
2023-02-23T19:35:15.706Z,2.72
2023-02-23T19:37:48.716Z,2.45
2023-02-23T19:40:20.698Z,2.33
2023-02-23T19:42:50.145Z,2.63
2023-02-23T19:45:19.345Z,2.40
2023-02-23T19:47:47.387Z,2.60
2023-02-23T19:50:17.426Z,2.42
2023-02-23T19:52:46.222Z,3.28
2023-02-23T19:55:14.677Z,2.65
2023-02-23T19:57:44.205Z,2.55
2023-02-23T20:00:13.927Z,2.90
2023-02-23T20:02:43.789Z,2.67
2023-02-23T20:05:13.174Z,2.83
2023-02-23T20:07:42.002Z,2.78
2023-02-23T20:10:13.994Z,3.50
2023-02-23T20:12:43.689Z,2.53
2023-02-23T20:15:14.784Z,2.60
2023-02-23T20:17:43.272Z,2.60
2023-02-23T20:20:12.606Z,2.88
2023-02-23T20:22:42.248Z,2.15
2023-02-23T20:25:16.476Z,2.58
2023-02-23T20:27:46.800Z,2.28
2023-02-23T20:30:15.478Z,2.47
2023-02-23T20:32:43.737Z,2.30
2023-02-23T20:35:14.139Z,2.30
2023-02-23T20:37:42.479Z,2.15
2023-02-23T20:40:17.052Z,2.08
2023-02-23T20:42:48.807Z,2.30
2023-02-23T20:45:19.742Z,1.80
2023-02-23T20:47:52.006Z,2.08
2023-02-23T20:50:21.984Z,2.35
2023-02-23T20:52:50.683Z,3.10
2023-02-23T20:55:19.891Z,3.30
2023-02-23T20:57:49.786Z,2.80
2023-02-23T21:00:22.810Z,3.30
2023-02-23T21:02:55.542Z,2.65
2023-02-23T21:05:25.362Z,5.07
2023-02-23T21:07:53.626Z,3.83
2023-02-23T21:10:21.746Z,3.08
2023-02-23T21:12:53.065Z,2.97
2023-02-23T21:15:21.142Z,3.10
2023-02-23T21:17:50.554Z,2.42
2023-02-23T21:20:20.931Z,2.55
2023-02-23T21:22:50.206Z,2.50
2023-02-23T21:25:20.411Z,3.15
2023-02-23T21:27:49.272Z,2.38
2023-02-23T21:30:21.740Z,3.17
2023-02-23T21:32:50.909Z,2.20
2023-02-23T21:35:20.070Z,2.13
2023-02-23T21:37:48.369Z,1.85
2023-02-23T21:40:20.564Z,2.40
2023-02-23T21:42:49.713Z,2.35
2023-02-23T21:45:20.762Z,1.95
2023-02-23T21:47:50.421Z,2.20
2023-02-23T21:50:20.202Z,2.30
2023-02-23T21:52:48.789Z,1.92
2023-02-23T21:55:22.398Z,1.77
2023-02-23T21:57:51.052Z,1.98
2023-02-23T22:00:21.055Z,1.90
2023-02-23T22:02:49.660Z,1.95
2023-02-23T22:05:19.154Z,1.98
2023-02-23T22:07:51.644Z,1.70
2023-02-23T22:10:21.325Z,1.80
2023-02-23T22:12:53.590Z,2.38
2023-02-23T22:15:27.598Z,2.00
2023-02-23T22:17:56.133Z,1.98
2023-02-23T22:20:25.436Z,1.60
2023-02-23T22:22:53.500Z,1.83
2023-02-23T22:25:21.709Z,1.90
2023-02-23T22:27:49.745Z,1.95
2023-02-23T22:30:20.242Z,1.70
2023-02-23T22:32:50.066Z,1.83
2023-02-23T22:35:18.353Z,2.00
2023-02-23T22:37:46.366Z,2.45
2023-02-23T22:40:15.765Z,1.65
2023-02-23T22:42:48.200Z,2.08
2023-02-23T22:45:17.266Z,1.90
2023-02-23T22:47:45.613Z,1.50
2023-02-23T22:50:17.972Z,1.55
2023-02-23T22:52:46.841Z,2.10
2023-02-23T22:55:14.973Z,1.95
2023-02-23T22:57:43.025Z,1.60
2023-02-23T23:00:12.995Z,1.67
2023-02-23T23:02:41.105Z,1.40
2023-02-23T23:05:10.023Z,1.67
2023-02-23T23:07:39.556Z,1.65
2023-02-23T23:10:12.098Z,1.52
2023-02-23T23:12:40.970Z,1.60
2023-02-23T23:15:14.840Z,1.50
2023-02-23T23:17:48.203Z,1.58
2023-02-23T23:20:18.794Z,1.90
2023-02-23T23:22:49.923Z,2.20
2023-02-23T23:25:22.868Z,1.70
2023-02-23T23:27:53.606Z,1.50
2023-02-23T23:30:25.939Z,1.15
2023-02-23T23:32:54.353Z,1.60
2023-02-23T23:35:23.015Z,1.50
2023-02-23T23:37:52.608Z,1.02
2023-02-23T23:40:24.413Z,1.30
2023-02-23T23:42:53.222Z,0.80
2023-02-23T23:45:25.185Z,1.45
2023-02-23T23:47:53.338Z,1.45
2023-02-23T23:50:26.662Z,1.45
2023-02-23T23:52:57.124Z,1.50
2023-02-23T23:55:31.284Z,1.27
2023-02-23T23:58:00.271Z,1.20
